sensor_id;sensor_type;location;lat;lon;timestamp;pressure;altitude;pressure_sealevel;temperature;humidity
55576;BME280;41437;45.478;9.116;2022-07-30T00:01:57;99679.88;;;28.31;49.06
55576;BME280;41437;45.478;9.116;2022-07-30T00:04:58;99682.28;;;28.29;49.05
55576;BME280;41437;45.478;9.116;2022-07-30T00:07:59;99677.81;;;28.28;49.39
55576;BME280;41437;45.478;9.116;2022-07-30T00:11:01;99674.97;;;28.28;49.20
55576;BME280;41437;45.478;9.116;2022-07-30T00:14:04;99666.06;;;28.26;49.14
55576;BME280;41437;45.478;9.116;2022-07-30T00:17:05;99666.06;;;28.26;49.03
55576;BME280;41437;45.478;9.116;2022-07-30T00:20:07;99668.44;;;28.24;49.22
55576;BME280;41437;45.478;9.116;2022-07-30T00:23:09;99668.84;;;28.22;49.36
55576;BME280;41437;45.478;9.116;2022-07-30T00:26:10;99672.50;;;28.23;49.06
55576;BME280;41437;45.478;9.116;2022-07-30T00:29:13;99668.03;;;28.22;49.10
55576;BME280;41437;45.478;9.116;2022-07-30T00:32:15;99672.03;;;28.21;49.28
55576;BME280;41437;45.478;9.116;2022-07-30T00:35:16;99672.44;;;28.19;49.24
55576;BME280;41437;45.478;9.116;2022-07-30T00:38:18;99665.13;;;28.18;49.42
55576;BME280;41437;45.478;9.116;2022-07-30T00:41:19;99662.69;;;28.17;49.38
55576;BME280;41437;45.478;9.116;2022-07-30T00:44:22;99658.22;;;28.16;49.58
55576;BME280;41437;45.478;9.116;2022-07-30T00:47:23;99666.72;;;28.16;49.61
55576;BME280;41437;45.478;9.116;2022-07-30T00:50:25;99664.66;;;28.13;49.52
55576;BME280;41437;45.478;9.116;2022-07-30T00:53:26;99669.50;;;28.12;49.62
55576;BME280;41437;45.478;9.116;2022-07-30T00:56:28;99665.03;;;28.11;49.53
55576;BME280;41437;45.478;9.116;2022-07-30T00:59:30;99669.06;;;28.10;49.97
55576;BME280;41437;45.478;9.116;2022-07-30T01:02:32;99680.00;;;28.08;49.65
55576;BME280;41437;45.478;9.116;2022-07-30T01:05:34;99677.16;;;28.08;49.72
55576;BME280;41437;45.478;9.116;2022-07-30T01:08:35;99678.72;;;28.05;49.74
55576;BME280;41437;45.478;9.116;2022-07-30T01:11:37;99677.91;;;28.05;49.85
55576;BME280;41437;45.478;9.116;2022-07-30T01:14:40;99662.94;;;28.04;49.69
55576;BME280;41437;45.478;9.116;2022-07-30T01:17:42;99666.94;;;28.03;49.83
55576;BME280;41437;45.478;9.116;2022-07-30T01:20:44;99663.69;;;28.01;49.81
55576;BME280;41437;45.478;9.116;2022-07-30T01:23:49;99662.88;;;28.01;49.72
55576;BME280;41437;45.478;9.116;2022-07-30T01:26:52;99668.09;;;27.99;49.73
55576;BME280;41437;45.478;9.116;2022-07-30T01:29:54;99675.78;;;27.98;50.08
55576;BME280;41437;45.478;9.116;2022-07-30T01:32:56;99671.31;;;27.97;49.71
55576;BME280;41437;45.478;9.116;2022-07-30T01:35:59;99668.88;;;27.96;49.85
55576;BME280;41437;45.478;9.116;2022-07-30T01:39:01;99669.25;;;27.94;49.68
55576;BME280;41437;45.478;9.116;2022-07-30T01:42:04;99665.59;;;27.94;49.93
55576;BME280;41437;45.478;9.116;2022-07-30T01:45:08;99659.13;;;27.93;49.79
55576;BME280;41437;45.478;9.116;2022-07-30T01:48:11;99667.19;;;27.91;49.96
55576;BME280;41437;45.478;9.116;2022-07-30T01:51:13;99657.88;;;27.91;49.92
55576;BME280;41437;45.478;9.116;2022-07-30T01:54:17;99659.84;;;27.87;50.13
55576;BME280;41437;45.478;9.116;2022-07-30T01:57:20;99659.47;;;27.88;50.00
55576;BME280;41437;45.478;9.116;2022-07-30T02:00:22;99655.00;;;27.87;49.88
55576;BME280;41437;45.478;9.116;2022-07-30T02:03:25;99650.50;;;27.86;49.97
55576;BME280;41437;45.478;9.116;2022-07-30T02:06:28;99635.94;;;27.84;50.08
55576;BME280;41437;45.478;9.116;2022-07-30T02:09:33;99628.66;;;27.83;49.82
55576;BME280;41437;45.478;9.116;2022-07-30T02:12:37;99629.84;;;27.82;50.28
55576;BME280;41437;45.478;9.116;2022-07-30T02:15:44;99637.91;;;27.80;50.29
55576;BME280;41437;45.478;9.116;2022-07-30T02:18:51;99626.56;;;27.80;49.90
55576;BME280;41437;45.478;9.116;2022-07-30T02:21:58;99631.81;;;27.78;50.31
55576;BME280;41437;45.478;9.116;2022-07-30T02:25:01;99632.19;;;27.76;50.03
55576;BME280;41437;45.478;9.116;2022-07-30T02:28:05;99639.03;;;27.75;50.09
55576;BME280;41437;45.478;9.116;2022-07-30T02:31:08;99633.78;;;27.74;50.26
55576;BME280;41437;45.478;9.116;2022-07-30T02:34:10;99638.63;;;27.73;50.46
55576;BME280;41437;45.478;9.116;2022-07-30T02:37:13;99629.66;;;27.71;50.25
55576;BME280;41437;45.478;9.116;2022-07-30T02:40:16;99631.66;;;27.71;50.21
55576;BME280;41437;45.478;9.116;2022-07-30T02:43:19;99621.56;;;27.70;50.37
55576;BME280;41437;45.478;9.116;2022-07-30T02:46:24;99616.25;;;27.68;50.50
55576;BME280;41437;45.478;9.116;2022-07-30T02:49:26;99608.16;;;27.67;50.27
55576;BME280;41437;45.478;9.116;2022-07-30T02:52:29;99619.06;;;27.65;50.17
55576;BME280;41437;45.478;9.116;2022-07-30T02:55:32;99610.56;;;27.65;50.28
55576;BME280;41437;45.478;9.116;2022-07-30T02:58:36;99611.72;;;27.64;50.42
55576;BME280;41437;45.478;9.116;2022-07-30T03:01:39;99601.63;;;27.63;50.17
55576;BME280;41437;45.478;9.116;2022-07-30T03:04:41;99588.66;;;27.62;50.57
55576;BME280;41437;45.478;9.116;2022-07-30T03:07:43;99587.84;;;27.61;50.35
55576;BME280;41437;45.478;9.116;2022-07-30T03:10:46;99591.06;;;27.60;50.18
55576;BME280;41437;45.478;9.116;2022-07-30T03:13:50;99587.81;;;27.58;50.66
55576;BME280;41437;45.478;9.116;2022-07-30T03:16:54;99580.50;;;27.56;50.09
55576;BME280;41437;45.478;9.116;2022-07-30T03:19:56;99578.84;;;27.55;50.56
55576;BME280;41437;45.478;9.116;2022-07-30T03:22:59;99574.41;;;27.54;50.62
55576;BME280;41437;45.478;9.116;2022-07-30T03:26:02;99578.44;;;27.53;50.69
55576;BME280;41437;45.478;9.116;2022-07-30T03:29:05;99572.78;;;27.53;50.50
55576;BME280;41437;45.478;9.116;2022-07-30T03:32:06;99574.34;;;27.51;50.38
55576;BME280;41437;45.478;9.116;2022-07-30T03:35:09;99569.88;;;27.50;50.68
55576;BME280;41437;45.478;9.116;2022-07-30T03:38:11;99576.75;;;27.49;50.22
55576;BME280;41437;45.478;9.116;2022-07-30T03:41:13;99575.13;;;27.48;50.22
55576;BME280;41437;45.478;9.116;2022-07-30T03:44:17;99569.84;;;27.46;50.18
55576;BME280;41437;45.478;9.116;2022-07-30T03:47:18;99571.03;;;27.45;50.44
55576;BME280;41437;45.478;9.116;2022-07-30T03:50:22;99568.59;;;27.44;50.27
55576;BME280;41437;45.478;9.116;2022-07-30T03:53:23;99560.47;;;27.42;50.34
55576;BME280;41437;45.478;9.116;2022-07-30T03:56:26;99559.66;;;27.42;50.36
55576;BME280;41437;45.478;9.116;2022-07-30T03:59:29;99574.19;;;27.40;50.39
55576;BME280;41437;45.478;9.116;2022-07-30T04:02:31;99566.53;;;27.41;50.54
55576;BME280;41437;45.478;9.116;2022-07-30T04:05:32;99564.84;;;27.36;50.69
55576;BME280;41437;45.478;9.116;2022-07-30T04:08:34;99578.59;;;27.38;50.48
55576;BME280;41437;45.478;9.116;2022-07-30T04:11:35;99576.97;;;27.37;50.62
55576;BME280;41437;45.478;9.116;2022-07-30T04:14:39;99581.81;;;27.36;50.27
55576;BME280;41437;45.478;9.116;2022-07-30T04:17:42;99586.66;;;27.36;50.55
55576;BME280;41437;45.478;9.116;2022-07-30T04:20:45;99589.88;;;27.34;50.40
55576;BME280;41437;45.478;9.116;2022-07-30T04:23:48;99592.25;;;27.32;50.52
55576;BME280;41437;45.478;9.116;2022-07-30T04:26:50;99588.63;;;27.31;50.56
55576;BME280;41437;45.478;9.116;2022-07-30T04:29:53;99593.47;;;27.31;50.52
55576;BME280;41437;45.478;9.116;2022-07-30T04:32:55;99588.16;;;27.29;50.83
55576;BME280;41437;45.478;9.116;2022-07-30T04:35:56;99600.69;;;27.28;50.54
55576;BME280;41437;45.478;9.116;2022-07-30T04:38:58;99598.19;;;27.23;50.73
55576;BME280;41437;45.478;9.116;2022-07-30T04:41:59;99597.44;;;27.26;50.60
55576;BME280;41437;45.478;9.116;2022-07-30T04:45:03;99597.78;;;27.25;50.65
55576;BME280;41437;45.478;9.116;2022-07-30T04:48:04;99615.97;;;27.24;50.72
55576;BME280;41437;45.478;9.116;2022-07-30T04:51:08;99614.34;;;27.23;50.74
55576;BME280;41437;45.478;9.116;2022-07-30T04:54:10;99624.03;;;27.22;50.71
55576;BME280;41437;45.478;9.116;2022-07-30T04:57:13;99622.38;;;27.21;50.78
55576;BME280;41437;45.478;9.116;2022-07-30T05:00:17;99626.41;;;27.20;50.90
55576;BME280;41437;45.478;9.116;2022-07-30T05:03:19;99632.84;;;27.17;50.82
55576;BME280;41437;45.478;9.116;2022-07-30T05:06:21;99627.16;;;27.17;50.97
55576;BME280;41437;45.478;9.116;2022-07-30T05:09:24;99625.50;;;27.16;50.86
55576;BME280;41437;45.478;9.116;2022-07-30T05:12:30;99629.53;;;27.15;50.78
55576;BME280;41437;45.478;9.116;2022-07-30T05:15:33;99644.06;;;27.13;50.74
55576;BME280;41437;45.478;9.116;2022-07-30T05:18:35;99639.22;;;27.14;50.58
55576;BME280;41437;45.478;9.116;2022-07-30T05:21:36;99649.72;;;27.13;50.73
55576;BME280;41437;45.478;9.116;2022-07-30T05:24:38;99641.59;;;27.12;50.64
55576;BME280;41437;45.478;9.116;2022-07-30T05:27:39;99640.78;;;27.11;50.89
55576;BME280;41437;45.478;9.116;2022-07-30T05:30:42;99643.19;;;27.09;50.79
55576;BME280;41437;45.478;9.116;2022-07-30T05:33:43;99654.50;;;27.09;50.75
55576;BME280;41437;45.478;9.116;2022-07-30T05:36:45;99656.50;;;27.09;50.75
55576;BME280;41437;45.478;9.116;2022-07-30T05:39:46;99658.50;;;27.08;50.95
55576;BME280;41437;45.478;9.116;2022-07-30T05:42:48;99660.50;;;27.07;51.01
55576;BME280;41437;45.478;9.116;2022-07-30T05:45:50;99665.34;;;27.07;51.12
55576;BME280;41437;45.478;9.116;2022-07-30T05:48:52;99660.88;;;27.06;50.95
55576;BME280;41437;45.478;9.116;2022-07-30T05:51:54;99651.56;;;27.05;50.80
55576;BME280;41437;45.478;9.116;2022-07-30T05:54:55;99653.19;;;27.06;50.96
55576;BME280;41437;45.478;9.116;2022-07-30T05:57:57;99665.72;;;27.05;51.14
55576;BME280;41437;45.478;9.116;2022-07-30T06:01:00;99661.69;;;27.06;51.19
55576;BME280;41437;45.478;9.116;2022-07-30T06:04:01;99660.06;;;27.05;50.86
55576;BME280;41437;45.478;9.116;2022-07-30T06:07:02;99665.72;;;27.05;51.14
55576;BME280;41437;45.478;9.116;2022-07-30T06:10:04;99665.72;;;27.05;50.91
55576;BME280;41437;45.478;9.116;2022-07-30T06:13:06;99665.72;;;27.05;51.14
55576;BME280;41437;45.478;9.116;2022-07-30T06:16:09;99666.47;;;27.02;51.23
55576;BME280;41437;45.478;9.116;2022-07-30T06:19:10;99672.19;;;27.06;51.22
55576;BME280;41437;45.478;9.116;2022-07-30T06:22:12;99668.16;;;27.07;51.23
55576;BME280;41437;45.478;9.116;2022-07-30T06:25:13;99675.81;;;27.06;51.13
55576;BME280;41437;45.478;9.116;2022-07-30T06:28:15;99681.47;;;27.06;51.01
55576;BME280;41437;45.478;9.116;2022-07-30T06:31:18;99685.13;;;27.07;51.45
55576;BME280;41437;45.478;9.116;2022-07-30T06:34:20;99694.41;;;27.07;51.19
55576;BME280;41437;45.478;9.116;2022-07-30T06:37:21;99691.59;;;27.07;51.06
55576;BME280;41437;45.478;9.116;2022-07-30T06:40:23;99698.91;;;27.09;51.34
55576;BME280;41437;45.478;9.116;2022-07-30T06:43:24;99702.59;;;27.09;51.34
55576;BME280;41437;45.478;9.116;2022-07-30T06:46:28;99694.09;;;27.09;51.15
55576;BME280;41437;45.478;9.116;2022-07-30T06:49:30;99700.56;;;27.10;51.20
55576;BME280;41437;45.478;9.116;2022-07-30T06:52:31;99705.03;;;27.11;51.38
55576;BME280;41437;45.478;9.116;2022-07-30T06:55:33;99707.84;;;27.11;51.21
55576;BME280;41437;45.478;9.116;2022-07-30T06:58:34;99703.81;;;27.12;51.17
55576;BME280;41437;45.478;9.116;2022-07-30T07:01:37;99702.66;;;27.13;51.34
55576;BME280;41437;45.478;9.116;2022-07-30T07:04:39;99707.09;;;27.14;51.33
55576;BME280;41437;45.478;9.116;2022-07-30T07:07:40;99712.75;;;27.14;51.30
55576;BME280;41437;45.478;9.116;2022-07-30T07:10:43;99703.91;;;27.15;51.14
55576;BME280;41437;45.478;9.116;2022-07-30T07:13:44;99713.19;;;27.16;51.15
55576;BME280;41437;45.478;9.116;2022-07-30T07:16:48;99711.19;;;27.16;51.09
55576;BME280;41437;45.478;9.116;2022-07-30T07:19:49;99708.34;;;27.16;51.05
55576;BME280;41437;45.478;9.116;2022-07-30T07:22:51;99708.34;;;27.16;51.15
55576;BME280;41437;45.478;9.116;2022-07-30T07:25:52;99708.00;;;27.18;51.15
55576;BME280;41437;45.478;9.116;2022-07-30T07:28:53;99711.25;;;27.20;51.13
55576;BME280;41437;45.478;9.116;2022-07-30T07:31:56;99707.22;;;27.21;51.06
55576;BME280;41437;45.478;9.116;2022-07-30T07:34:58;99708.88;;;27.22;51.10
55576;BME280;41437;45.478;9.116;2022-07-30T07:37:59;99720.19;;;27.22;51.29
55576;BME280;41437;45.478;9.116;2022-07-30T07:41:01;99714.97;;;27.24;50.91
55576;BME280;41437;45.478;9.116;2022-07-30T07:44:03;99719.41;;;27.25;50.93
55576;BME280;41437;45.478;9.116;2022-07-30T07:47:06;99716.25;;;27.26;51.22
55576;BME280;41437;45.478;9.116;2022-07-30T07:50:08;99717.06;;;27.27;51.05
55576;BME280;41437;45.478;9.116;2022-07-30T07:53:09;99712.22;;;27.27;50.94
55576;BME280;41437;45.478;9.116;2022-07-30T07:56:11;99709.00;;;27.29;50.87
55576;BME280;41437;45.478;9.116;2022-07-30T07:59:13;99706.97;;;27.29;51.08
55576;BME280;41437;45.478;9.116;2022-07-30T08:02:16;99711.47;;;27.30;50.90
55576;BME280;41437;45.478;9.116;2022-07-30T08:05:17;99704.59;;;27.31;51.10
55576;BME280;41437;45.478;9.116;2022-07-30T08:08:18;99705.41;;;27.32;51.01
55576;BME280;41437;45.478;9.116;2022-07-30T08:11:20;99715.53;;;27.33;51.07
55576;BME280;41437;45.478;9.116;2022-07-30T08:14:21;99713.16;;;27.35;51.04
55576;BME280;41437;45.478;9.116;2022-07-30T08:17:24;99720.44;;;27.36;51.04
55576;BME280;41437;45.478;9.116;2022-07-30T08:20:26;99710.75;;;27.37;50.86
55576;BME280;41437;45.478;9.116;2022-07-30T08:23:27;99718.88;;;27.39;50.89
55576;BME280;41437;45.478;9.116;2022-07-30T08:26:29;99712.03;;;27.40;51.01
55576;BME280;41437;45.478;9.116;2022-07-30T08:29:30;99719.31;;;27.41;50.90
55576;BME280;41437;45.478;9.116;2022-07-30T08:32:33;99720.94;;;27.42;51.27
55576;BME280;41437;45.478;9.116;2022-07-30T08:35:35;99722.59;;;27.43;51.11
55576;BME280;41437;45.478;9.116;2022-07-30T08:38:37;99720.19;;;27.45;50.93
55576;BME280;41437;45.478;9.116;2022-07-30T08:41:39;99720.19;;;27.45;50.75
55576;BME280;41437;45.478;9.116;2022-07-30T08:44:41;99719.00;;;27.46;50.82
55576;BME280;41437;45.478;9.116;2022-07-30T08:47:45;99721.47;;;27.47;50.77
55576;BME280;41437;45.478;9.116;2022-07-30T08:50:48;99721.06;;;27.49;50.86
55576;BME280;41437;45.478;9.116;2022-07-30T08:53:50;99724.72;;;27.49;50.85
55576;BME280;41437;45.478;9.116;2022-07-30T08:56:51;99721.50;;;27.51;50.84
55576;BME280;41437;45.478;9.116;2022-07-30T08:59:53;99718.31;;;27.52;50.64
55576;BME280;41437;45.478;9.116;2022-07-30T09:02:57;99722.38;;;27.55;50.62
55576;BME280;41437;45.478;9.116;2022-07-30T09:05:59;99721.22;;;27.56;50.71
55576;BME280;41437;45.478;9.116;2022-07-30T09:09:01;99722.84;;;27.57;50.74
55576;BME280;41437;45.478;9.116;2022-07-30T09:12:03;99728.09;;;27.59;50.77
55576;BME280;41437;45.478;9.116;2022-07-30T09:15:06;99724.88;;;27.60;50.75
55576;BME280;41437;45.478;9.116;2022-07-30T09:18:09;99725.34;;;27.62;50.97
55576;BME280;41437;45.478;9.116;2022-07-30T09:21:14;99716.47;;;27.64;50.50
55576;BME280;41437;45.478;9.116;2022-07-30T09:24:16;99715.28;;;27.65;50.67
55576;BME280;41437;45.478;9.116;2022-07-30T09:27:17;99719.75;;;27.66;50.67
55576;BME280;41437;45.478;9.116;2022-07-30T09:30:19;99728.31;;;27.69;50.65
55576;BME280;41437;45.478;9.116;2022-07-30T09:33:31;99724.28;;;27.70;50.40
55576;BME280;41437;45.478;9.116;2022-07-30T09:36:32;99715.38;;;27.72;50.59
55576;BME280;41437;45.478;9.116;2022-07-30T09:39:35;99727.19;;;27.74;50.40
55576;BME280;41437;45.478;9.116;2022-07-30T09:42:37;99726.00;;;27.75;50.58
55576;BME280;41437;45.478;9.116;2022-07-30T09:45:48;99719.94;;;27.76;50.54
55576;BME280;41437;45.478;9.116;2022-07-30T09:48:51;99725.25;;;27.78;50.51
55576;BME280;41437;45.478;9.116;2022-07-30T09:51:53;99723.66;;;27.80;50.52
55576;BME280;41437;45.478;9.116;2022-07-30T09:54:55;99720.47;;;27.82;50.59
55576;BME280;41437;45.478;9.116;2022-07-30T09:57:57;99718.84;;;27.85;50.28
55576;BME280;41437;45.478;9.116;2022-07-30T10:00:59;99722.50;;;27.85;50.33
55576;BME280;41437;45.478;9.116;2022-07-30T10:04:02;99714.47;;;27.87;50.15
55576;BME280;41437;45.478;9.116;2022-07-30T10:07:04;99712.44;;;27.88;50.26
55576;BME280;41437;45.478;9.116;2022-07-30T10:10:05;99708.00;;;27.90;50.36
55576;BME280;41437;45.478;9.116;2022-07-30T10:13:07;99711.72;;;27.94;50.09
55576;BME280;41437;45.478;9.116;2022-07-30T10:16:09;99706.06;;;27.94;50.35
55576;BME280;41437;45.478;9.116;2022-07-30T10:19:12;99708.13;;;27.97;50.31
55576;BME280;41437;45.478;9.116;2022-07-30T10:22:14;99697.25;;;27.99;50.20
55576;BME280;41437;45.478;9.116;2022-07-30T10:25:16;99705.34;;;28.01;50.13
55576;BME280;41437;45.478;9.116;2022-07-30T10:28:18;99707.44;;;28.04;50.83
55576;BME280;41437;45.478;9.116;2022-07-30T10:31:20;99708.66;;;28.06;50.82
55576;BME280;41437;45.478;9.116;2022-07-30T10:34:23;99698.97;;;28.08;50.58
55576;BME280;41437;45.478;9.116;2022-07-30T10:37:24;99698.22;;;28.11;50.50
55576;BME280;41437;45.478;9.116;2022-07-30T10:40:28;99694.63;;;28.14;50.68
55576;BME280;41437;45.478;9.116;2022-07-30T10:46:54;99695.50;;;28.18;50.41
55576;BME280;41437;45.478;9.116;2022-07-30T10:50:08;99694.69;;;28.21;50.48
55576;BME280;41437;45.478;9.116;2022-07-30T10:53:11;99692.31;;;28.23;51.38
55576;BME280;41437;45.478;9.116;2022-07-30T10:56:31;99687.06;;;28.25;50.53
55576;BME280;41437;45.478;9.116;2022-07-30T11:03:10;99688.38;;;28.31;52.35
55576;BME280;41437;45.478;9.116;2022-07-30T11:06:26;99688.81;;;28.33;52.68
55576;BME280;41437;45.478;9.116;2022-07-30T11:09:34;99684.75;;;28.34;53.66
55576;BME280;41437;45.478;9.116;2022-07-30T11:12:52;99685.25;;;28.36;52.76
55576;BME280;41437;45.478;9.116;2022-07-30T11:15:54;99681.66;;;28.39;53.61
55576;BME280;41437;45.478;9.116;2022-07-30T11:19:06;99678.03;;;28.42;53.99
55576;BME280;41437;45.478;9.116;2022-07-30T11:22:24;99692.25;;;28.46;54.08
55576;BME280;41437;45.478;9.116;2022-07-30T11:25:38;99681.34;;;28.48;54.72
55576;BME280;41437;45.478;9.116;2022-07-30T11:28:42;99676.91;;;28.50;54.65
55576;BME280;41437;45.478;9.116;2022-07-30T11:31:44;99676.97;;;28.54;54.83
55576;BME280;41437;45.478;9.116;2022-07-30T11:34:46;99676.56;;;28.55;54.79
55576;BME280;41437;45.478;9.116;2022-07-30T11:37:55;99660.41;;;28.60;54.55
55576;BME280;41437;45.478;9.116;2022-07-30T11:44:26;99667.38;;;28.66;55.29
55576;BME280;41437;45.478;9.116;2022-07-30T11:47:27;99666.59;;;28.69;55.13
55576;BME280;41437;45.478;9.116;2022-07-30T11:50:31;99665.84;;;28.72;55.08
55576;BME280;41437;45.478;9.116;2022-07-30T11:53:34;99661.03;;;28.76;55.29
55576;BME280;41437;45.478;9.116;2022-07-30T11:56:35;99654.56;;;28.79;55.05
55576;BME280;41437;45.478;9.116;2022-07-30T11:59:51;99652.16;;;28.81;55.41
55576;BME280;41437;45.478;9.116;2022-07-30T12:02:52;99661.53;;;28.85;55.23
55576;BME280;41437;45.478;9.116;2022-07-30T12:05:54;99656.28;;;28.87;55.24
55576;BME280;41437;45.478;9.116;2022-07-30T12:08:57;99657.16;;;28.91;55.27
55576;BME280;41437;45.478;9.116;2022-07-30T12:11:59;99654.31;;;28.95;55.36
55576;BME280;41437;45.478;9.116;2022-07-30T12:15:01;99653.19;;;28.99;55.38
55576;BME280;41437;45.478;9.116;2022-07-30T12:18:03;99650.78;;;29.01;55.75
55576;BME280;41437;45.478;9.116;2022-07-30T12:21:05;99645.97;;;29.05;55.28
55576;BME280;41437;45.478;9.116;2022-07-30T12:24:09;99645.19;;;29.09;55.64
55576;BME280;41437;45.478;9.116;2022-07-30T12:27:10;99642.75;;;29.11;55.47
55576;BME280;41437;45.478;9.116;2022-07-30T12:30:13;99644.44;;;29.15;54.92
55576;BME280;41437;45.478;9.116;2022-07-30T12:33:15;99640.00;;;29.18;55.23
55576;BME280;41437;45.478;9.116;2022-07-30T12:36:23;99639.19;;;29.21;55.45
55576;BME280;41437;45.478;9.116;2022-07-30T12:39:26;99642.88;;;29.25;55.26
55576;BME280;41437;45.478;9.116;2022-07-30T12:42:28;99649.00;;;29.27;55.57
55576;BME280;41437;45.478;9.116;2022-07-30T12:45:30;99636.88;;;29.30;55.39
55576;BME280;41437;45.478;9.116;2022-07-30T12:48:32;99640.53;;;29.34;55.36
55576;BME280;41437;45.478;9.116;2022-07-30T12:51:34;99630.03;;;29.38;55.66
55576;BME280;41437;45.478;9.116;2022-07-30T12:54:38;99621.94;;;29.40;55.39
55576;BME280;41437;45.478;9.116;2022-07-30T12:57:52;99626.84;;;29.43;55.45
55576;BME280;41437;45.478;9.116;2022-07-30T13:00:53;99619.16;;;29.47;55.42
55576;BME280;41437;45.478;9.116;2022-07-30T13:04:03;99615.16;;;29.52;55.36
55576;BME280;41437;45.478;9.116;2022-07-30T13:07:05;99617.19;;;29.55;55.35
55576;BME280;41437;45.478;9.116;2022-07-30T13:10:09;99611.97;;;29.57;55.09
55576;BME280;41437;45.478;9.116;2022-07-30T13:13:11;99610.78;;;29.62;54.94
55576;BME280;41437;45.478;9.116;2022-07-30T13:16:13;99597.81;;;29.64;54.68
55576;BME280;41437;45.478;9.116;2022-07-30T13:19:15;99602.28;;;29.69;53.52
55576;BME280;41437;45.478;9.116;2022-07-30T13:22:16;99598.66;;;29.72;54.14
55576;BME280;41437;45.478;9.116;2022-07-30T13:25:19;99601.94;;;29.74;54.33
55576;BME280;41437;45.478;9.116;2022-07-30T13:28:21;99602.34;;;29.76;54.74
55576;BME280;41437;45.478;9.116;2022-07-30T13:31:24;99598.72;;;29.79;54.76
55576;BME280;41437;45.478;9.116;2022-07-30T13:34:25;99595.06;;;29.82;54.58
55576;BME280;41437;45.478;9.116;2022-07-30T13:37:27;99597.13;;;29.85;54.86
55576;BME280;41437;45.478;9.116;2022-07-30T13:40:30;99589.03;;;29.87;54.61
55576;BME280;41437;45.478;9.116;2022-07-30T13:43:31;99589.88;;;29.91;54.48
55576;BME280;41437;45.478;9.116;2022-07-30T13:46:33;99593.13;;;29.93;54.50
55576;BME280;41437;45.478;9.116;2022-07-30T13:49:34;99589.47;;;29.96;53.74
55576;BME280;41437;45.478;9.116;2022-07-30T13:52:38;99588.66;;;29.99;53.96
55576;BME280;41437;45.478;9.116;2022-07-30T13:55:40;99583.41;;;30.01;54.07
55576;BME280;41437;45.478;9.116;2022-07-30T13:58:42;99582.63;;;30.04;54.10
55576;BME280;41437;45.478;9.116;2022-07-30T14:01:44;99576.13;;;30.08;53.91
55576;BME280;41437;45.478;9.116;2022-07-30T14:04:45;99580.22;;;30.10;53.74
55576;BME280;41437;45.478;9.116;2022-07-30T14:07:47;99570.06;;;30.13;53.47
55576;BME280;41437;45.478;9.116;2022-07-30T14:10:49;99568.06;;;30.17;53.46
55576;BME280;41437;45.478;9.116;2022-07-30T14:13:51;99565.66;;;30.19;53.62
55576;BME280;41437;45.478;9.116;2022-07-30T14:16:52;99564.03;;;30.21;53.47
55576;BME280;41437;45.478;9.116;2022-07-30T14:19:54;99553.91;;;30.24;53.35
55576;BME280;41437;45.478;9.116;2022-07-30T14:22:55;99549.47;;;30.26;53.08
55576;BME280;41437;45.478;9.116;2022-07-30T14:25:58;99544.97;;;30.29;52.94
55576;BME280;41437;45.478;9.116;2022-07-30T14:28:59;99546.22;;;30.32;52.92
55576;BME280;41437;45.478;9.116;2022-07-30T14:32:01;99544.59;;;30.34;52.89
55576;BME280;41437;45.478;9.116;2022-07-30T14:35:03;99547.84;;;30.36;52.70
55576;BME280;41437;45.478;9.116;2022-07-30T14:38:04;99541.75;;;30.38;52.48
55576;BME280;41437;45.478;9.116;2022-07-30T14:41:07;99556.41;;;30.43;52.27
55576;BME280;41437;45.478;9.116;2022-07-30T14:44:09;99545.44;;;30.45;52.16
55576;BME280;41437;45.478;9.116;2022-07-30T14:47:12;99541.00;;;30.48;51.76
55576;BME280;41437;45.478;9.116;2022-07-30T14:50:14;99552.75;;;30.50;51.80
55576;BME280;41437;45.478;9.116;2022-07-30T14:53:15;99545.47;;;30.52;51.88
55576;BME280;41437;45.478;9.116;2022-07-30T14:56:18;99546.28;;;30.57;51.74
55576;BME280;41437;45.478;9.116;2022-07-30T14:59:21;99538.97;;;30.59;51.19
55576;BME280;41437;45.478;9.116;2022-07-30T15:02:22;99538.97;;;30.63;51.26
55576;BME280;41437;45.478;9.116;2022-07-30T15:05:24;99543.44;;;30.64;51.07
55576;BME280;41437;45.478;9.116;2022-07-30T15:08:25;99531.25;;;30.67;51.32
55576;BME280;41437;45.478;9.116;2022-07-30T15:11:28;99534.50;;;30.69;50.90
55576;BME280;41437;45.478;9.116;2022-07-30T15:14:29;99530.03;;;30.71;51.07
55576;BME280;41437;45.478;9.116;2022-07-30T15:17:31;99529.66;;;30.73;50.85
55576;BME280;41437;45.478;9.116;2022-07-30T15:20:32;99535.78;;;30.75;50.45
55576;BME280;41437;45.478;9.116;2022-07-30T15:23:34;99539.00;;;30.77;50.40
55576;BME280;41437;45.478;9.116;2022-07-30T15:26:36;99532.94;;;30.78;50.30
55576;BME280;41437;45.478;9.116;2022-07-30T15:29:38;99524.00;;;30.80;50.11
55576;BME280;41437;45.478;9.116;2022-07-30T15:32:39;99531.72;;;30.83;50.04
55576;BME280;41437;45.478;9.116;2022-07-30T15:35:41;99535.75;;;30.86;50.02
55576;BME280;41437;45.478;9.116;2022-07-30T15:38:42;99533.34;;;30.88;49.89
55576;BME280;41437;45.478;9.116;2022-07-30T15:41:45;99528.47;;;30.88;49.85
55576;BME280;41437;45.478;9.116;2022-07-30T15:44:47;99528.84;;;30.90;49.62
55576;BME280;41437;45.478;9.116;2022-07-30T15:47:48;99527.25;;;30.93;49.48
55576;BME280;41437;45.478;9.116;2022-07-30T15:50:50;99529.66;;;30.94;49.30
55576;BME280;41437;45.478;9.116;2022-07-30T15:53:51;99526.81;;;30.94;49.04
55576;BME280;41437;45.478;9.116;2022-07-30T15:56:54;99527.25;;;30.96;49.08
55576;BME280;41437;45.478;9.116;2022-07-30T15:59:58;99521.94;;;30.98;47.67
55576;BME280;41437;45.478;9.116;2022-07-30T16:02:59;99526.03;;;31.01;46.66
55576;BME280;41437;45.478;9.116;2022-07-30T16:06:01;99523.56;;;31.03;48.12
55576;BME280;41437;45.478;9.116;2022-07-30T16:09:02;99527.22;;;31.03;48.32
55576;BME280;41437;45.478;9.116;2022-07-30T16:12:07;99524.38;;;31.03;47.80
55576;BME280;41437;45.478;9.116;2022-07-30T16:15:09;99526.84;;;31.05;48.00
55576;BME280;41437;45.478;9.116;2022-07-30T16:18:11;99525.63;;;31.06;47.70